sensor_id;sensor_type;location;lat;lon;timestamp;pressure;altitude;pressure_sealevel;temperature;humidity
6853;BME280;3465;42.144;24.722;2023-04-10T00:00:23;145398.50;;;9.92;69.38
6853;BME280;3465;42.144;24.722;2023-04-10T00:02:49;145364.72;;;9.79;69.57
6853;BME280;3465;42.144;24.722;2023-04-10T00:05:14;145373.50;;;9.82;69.93
6853;BME280;3465;42.144;24.722;2023-04-10T00:07:40;145352.22;;;9.74;69.58
6853;BME280;3465;42.144;24.722;2023-04-10T00:10:06;145359.72;;;9.77;70.64
6853;BME280;3465;42.144;24.722;2023-04-10T00:12:32;145338.41;;;9.68;71.13
6853;BME280;3465;42.144;24.722;2023-04-10T00:14:57;145335.94;;;9.67;71.17
6853;BME280;3465;42.144;24.722;2023-04-10T00:17:23;145318.41;;;9.60;71.33
6853;BME280;3465;42.144;24.722;2023-04-10T00:19:48;145332.19;;;9.66;71.81
6853;BME280;3465;42.144;24.722;2023-04-10T00:22:14;145312.16;;;9.58;71.28
6853;BME280;3465;42.144;24.722;2023-04-10T00:24:42;145337.19;;;9.68;71.43
6853;BME280;3465;42.144;24.722;2023-04-10T00:27:07;145290.88;;;9.49;71.50
6853;BME280;3465;42.144;24.722;2023-04-10T00:29:33;145303.41;;;9.54;72.36
6853;BME280;3465;42.144;24.722;2023-04-10T00:31:58;145285.91;;;9.47;72.26
6853;BME280;3465;42.144;24.722;2023-04-10T00:34:24;145270.88;;;9.41;72.30
6853;BME280;3465;42.144;24.722;2023-04-10T00:36:49;145285.91;;;9.47;72.48
6853;BME280;3465;42.144;24.722;2023-04-10T00:39:15;145294.63;;;9.51;71.99
6853;BME280;3465;42.144;24.722;2023-04-10T00:41:40;145262.09;;;9.38;72.91
6853;BME280;3465;42.144;24.722;2023-04-10T00:44:06;145274.63;;;9.43;72.52
6853;BME280;3465;42.144;24.722;2023-04-10T00:46:32;145270.88;;;9.41;72.96
6853;BME280;3465;42.144;24.722;2023-04-10T00:48:59;145260.88;;;9.37;73.81
6853;BME280;3465;42.144;24.722;2023-04-10T00:51:24;145243.34;;;9.30;73.57
6853;BME280;3465;42.144;24.722;2023-04-10T00:53:52;145265.91;;;9.39;73.90
6853;BME280;3465;42.144;24.722;2023-04-10T00:56:22;145255.88;;;9.35;74.18
6853;BME280;3465;42.144;24.722;2023-04-10T00:58:48;145248.38;;;9.32;75.17
6853;BME280;3465;42.144;24.722;2023-04-10T01:01:13;145253.38;;;9.34;76.09
6853;BME280;3465;42.144;24.722;2023-04-10T01:03:40;145265.91;;;9.39;76.92
6853;BME280;3465;42.144;24.722;2023-04-10T01:06:26;145230.84;;;9.25;76.88
6853;BME280;3465;42.144;24.722;2023-04-10T01:14:26;145129.56;;;8.85;79.23
6853;BME280;3465;42.144;24.722;2023-04-10T01:17:11;145077.06;;;8.63;80.16
6853;BME280;3465;42.144;24.722;2023-04-10T01:25:37;145082.03;;;8.65;83.91
6853;BME280;3465;42.144;24.722;2023-04-10T01:30:36;145082.03;;;8.65;85.10
6853;BME280;3465;42.144;24.722;2023-04-10T01:33:02;145058.28;;;8.56;84.57
6853;BME280;3465;42.144;24.722;2023-04-10T01:35:32;145054.53;;;8.54;84.46
6853;BME280;3465;42.144;24.722;2023-04-10T01:38:00;145058.28;;;8.56;84.58
6853;BME280;3465;42.144;24.722;2023-04-10T01:40:26;144999.53;;;8.32;85.58
6853;BME280;3465;42.144;24.722;2023-04-10T01:42:55;145010.78;;;8.37;85.72
6853;BME280;3465;42.144;24.722;2023-04-10T01:45:24;145017.06;;;8.39;85.78
6853;BME280;3465;42.144;24.722;2023-04-10T01:47:52;145010.78;;;8.37;85.82
6853;BME280;3465;42.144;24.722;2023-04-10T01:50:20;144999.53;;;8.32;85.23
6853;BME280;3465;42.144;24.722;2023-04-10T01:52:49;145000.81;;;8.33;86.11
6853;BME280;3465;42.144;24.722;2023-04-10T01:55:16;144995.78;;;8.31;86.80
6853;BME280;3465;42.144;24.722;2023-04-10T01:57:42;144975.81;;;8.23;87.60
6853;BME280;3465;42.144;24.722;2023-04-10T02:00:08;144970.75;;;8.21;88.20
6853;BME280;3465;42.144;24.722;2023-04-10T02:02:34;144965.78;;;8.19;87.99
6853;BME280;3465;42.144;24.722;2023-04-10T02:04:59;144995.78;;;8.31;89.14
6853;BME280;3465;42.144;24.722;2023-04-10T02:07:29;144993.31;;;8.30;89.29
6853;BME280;3465;42.144;24.722;2023-04-10T02:10:03;144998.28;;;8.32;89.23
6853;BME280;3465;42.144;24.722;2023-04-10T02:12:38;144969.53;;;8.20;89.32
6853;BME280;3465;42.144;24.722;2023-04-10T02:15:07;144970.75;;;8.21;89.49
6853;BME280;3465;42.144;24.722;2023-04-10T02:17:34;144964.50;;;8.18;90.80
6853;BME280;3465;42.144;24.722;2023-04-10T02:20:01;144934.50;;;8.06;90.48
6853;BME280;3465;42.144;24.722;2023-04-10T02:22:28;144923.25;;;8.02;91.63
6853;BME280;3465;42.144;24.722;2023-04-10T02:24:55;144932.03;;;8.05;93.09
6853;BME280;3465;42.144;24.722;2023-04-10T02:27:29;144894.53;;;7.90;94.60
6853;BME280;3465;42.144;24.722;2023-04-10T02:29:54;144880.81;;;7.85;95.88
6853;BME280;3465;42.144;24.722;2023-04-10T02:32:21;144884.53;;;7.86;97.04
6853;BME280;3465;42.144;24.722;2023-04-10T02:34:46;144893.31;;;7.90;96.56
6853;BME280;3465;42.144;24.722;2023-04-10T02:37:12;144922.00;;;8.01;96.34
6853;BME280;3465;42.144;24.722;2023-04-10T02:39:38;144915.78;;;7.99;96.77
6853;BME280;3465;42.144;24.722;2023-04-10T02:42:03;144933.28;;;8.06;96.42
6853;BME280;3465;42.144;24.722;2023-04-10T02:44:28;144927.00;;;8.03;95.53
6853;BME280;3465;42.144;24.722;2023-04-10T02:46:54;144958.25;;;8.16;95.65
6853;BME280;3465;42.144;24.722;2023-04-10T02:49:19;144937.03;;;8.07;95.05
6853;BME280;3465;42.144;24.722;2023-04-10T02:51:45;144933.28;;;8.06;95.15
6853;BME280;3465;42.144;24.722;2023-04-10T02:54:10;144975.81;;;8.23;94.67
6853;BME280;3465;42.144;24.722;2023-04-10T02:56:36;144970.75;;;8.21;94.45
6853;BME280;3465;42.144;24.722;2023-04-10T02:59:01;144990.78;;;8.29;94.15
6853;BME280;3465;42.144;24.722;2023-04-10T03:01:27;144975.81;;;8.23;94.90
6853;BME280;3465;42.144;24.722;2023-04-10T03:03:53;144982.03;;;8.25;94.33
6853;BME280;3465;42.144;24.722;2023-04-10T03:06:18;144997.06;;;8.31;93.91
6853;BME280;3465;42.144;24.722;2023-04-10T03:08:43;144968.25;;;8.20;93.60
6853;BME280;3465;42.144;24.722;2023-04-10T03:11:09;145007.03;;;8.35;93.46
6853;BME280;3465;42.144;24.722;2023-04-10T03:13:34;144993.31;;;8.30;93.47
6853;BME280;3465;42.144;24.722;2023-04-10T03:16:00;144999.53;;;8.32;92.74
6853;BME280;3465;42.144;24.722;2023-04-10T03:18:25;145009.56;;;8.36;92.50
6853;BME280;3465;42.144;24.722;2023-04-10T03:20:50;144980.81;;;8.25;92.88
6853;BME280;3465;42.144;24.722;2023-04-10T03:23:16;144989.56;;;8.28;93.60
6853;BME280;3465;42.144;24.722;2023-04-10T03:25:41;145018.28;;;8.40;92.57
6853;BME280;3465;42.144;24.722;2023-04-10T03:28:07;145004.56;;;8.34;92.78
6853;BME280;3465;42.144;24.722;2023-04-10T03:30:33;144974.47;;;8.22;92.78
6853;BME280;3465;42.144;24.722;2023-04-10T03:33:01;144997.06;;;8.31;92.51
6853;BME280;3465;42.144;24.722;2023-04-10T03:35:26;144975.81;;;8.23;92.34
6853;BME280;3465;42.144;24.722;2023-04-10T03:37:52;145027.03;;;8.43;91.81
6853;BME280;3465;42.144;24.722;2023-04-10T03:40:17;145008.31;;;8.36;91.91
6853;BME280;3465;42.144;24.722;2023-04-10T03:42:42;144993.31;;;8.30;92.00
6853;BME280;3465;42.144;24.722;2023-04-10T03:45:08;144993.31;;;8.30;91.34
6853;BME280;3465;42.144;24.722;2023-04-10T03:47:34;144983.28;;;8.26;90.33
6853;BME280;3465;42.144;24.722;2023-04-10T03:50:00;144988.31;;;8.28;89.88
6853;BME280;3465;42.144;24.722;2023-04-10T03:52:26;145000.81;;;8.33;89.14
6853;BME280;3465;42.144;24.722;2023-04-10T03:54:52;144955.75;;;8.15;88.99
6853;BME280;3465;42.144;24.722;2023-04-10T03:57:18;144977.06;;;8.23;89.57
6853;BME280;3465;42.144;24.722;2023-04-10T03:59:47;144944.53;;;8.10;90.09
6853;BME280;3465;42.144;24.722;2023-04-10T04:02:13;144920.78;;;8.01;91.21
6853;BME280;3465;42.144;24.722;2023-04-10T04:04:39;144934.50;;;8.06;91.90
6853;BME280;3465;42.144;24.722;2023-04-10T04:07:04;144928.28;;;8.04;92.78
6853;BME280;3465;42.144;24.722;2023-04-10T04:09:30;144918.25;;;8.00;93.69
6853;BME280;3465;42.144;24.722;2023-04-10T04:11:56;144947.00;;;8.11;94.20
6853;BME280;3465;42.144;24.722;2023-04-10T04:14:22;144957.03;;;8.15;94.46
6853;BME280;3465;42.144;24.722;2023-04-10T04:16:48;144977.06;;;8.23;94.25
6853;BME280;3465;42.144;24.722;2023-04-10T04:19:13;144983.28;;;8.26;93.68
6853;BME280;3465;42.144;24.722;2023-04-10T04:21:38;144995.78;;;8.31;93.53
6853;BME280;3465;42.144;24.722;2023-04-10T04:24:04;144985.81;;;8.27;93.49
6853;BME280;3465;42.144;24.722;2023-04-10T04:26:30;145000.81;;;8.33;93.48
6853;BME280;3465;42.144;24.722;2023-04-10T04:28:55;145012.03;;;8.37;93.60
6853;BME280;3465;42.144;24.722;2023-04-10T04:31:20;144993.31;;;8.30;93.72
6853;BME280;3465;42.144;24.722;2023-04-10T04:33:46;145008.31;;;8.36;94.72
6853;BME280;3465;42.144;24.722;2023-04-10T04:36:11;144975.81;;;8.23;95.04
6853;BME280;3465;42.144;24.722;2023-04-10T04:38:37;144997.06;;;8.31;93.60
6853;BME280;3465;42.144;24.722;2023-04-10T04:41:02;144987.03;;;8.27;94.45
6853;BME280;3465;42.144;24.722;2023-04-10T04:43:27;144992.03;;;8.29;94.12
6853;BME280;3465;42.144;24.722;2023-04-10T04:45:53;145008.31;;;8.36;94.12
6853;BME280;3465;42.144;24.722;2023-04-10T04:48:18;144949.53;;;8.12;93.51
6853;BME280;3465;42.144;24.722;2023-04-10T04:50:44;145068.28;;;8.60;92.41
6853;BME280;3465;42.144;24.722;2023-04-10T04:53:09;145059.53;;;8.56;93.14
6853;BME280;3465;42.144;24.722;2023-04-10T04:55:35;145073.31;;;8.62;92.86
6853;BME280;3465;42.144;24.722;2023-04-10T04:58:00;145102.03;;;8.73;92.17
6853;BME280;3465;42.144;24.722;2023-04-10T05:00:26;145118.28;;;8.80;92.21
6853;BME280;3465;42.144;24.722;2023-04-10T05:02:51;145127.03;;;8.84;91.77
6853;BME280;3465;42.144;24.722;2023-04-10T05:05:17;145147.06;;;8.92;92.03
6853;BME280;3465;42.144;24.722;2023-04-10T05:07:42;145158.28;;;8.96;92.80
6853;BME280;3465;42.144;24.722;2023-04-10T05:10:08;145138.28;;;8.88;92.28
6853;BME280;3465;42.144;24.722;2023-04-10T05:12:33;145205.84;;;9.15;91.78
6853;BME280;3465;42.144;24.722;2023-04-10T05:14:59;145255.88;;;9.35;90.54
6853;BME280;3465;42.144;24.722;2023-04-10T05:17:25;145275.88;;;9.43;89.85
6853;BME280;3465;42.144;24.722;2023-04-10T05:19:50;145255.88;;;9.35;88.77
6853;BME280;3465;42.144;24.722;2023-04-10T05:22:16;145288.41;;;9.48;88.95
6853;BME280;3465;42.144;24.722;2023-04-10T05:24:41;145287.13;;;9.48;89.34
6853;BME280;3465;42.144;24.722;2023-04-10T05:27:07;145319.66;;;9.61;89.38
6853;BME280;3465;42.144;24.722;2023-04-10T05:29:32;145327.16;;;9.64;90.19
6853;BME280;3465;42.144;24.722;2023-04-10T05:31:58;145355.97;;;9.75;89.91
6853;BME280;3465;42.144;24.722;2023-04-10T05:34:23;145355.97;;;9.75;90.08
6853;BME280;3465;42.144;24.722;2023-04-10T05:36:49;145378.47;;;9.84;90.16
6853;BME280;3465;42.144;24.722;2023-04-10T05:39:14;145389.78;;;9.89;89.39
6853;BME280;3465;42.144;24.722;2023-04-10T05:41:40;145396.00;;;9.91;88.69
6853;BME280;3465;42.144;24.722;2023-04-10T05:44:06;145433.56;;;10.06;88.35
6853;BME280;3465;42.144;24.722;2023-04-10T05:46:31;145473.69;;;10.23;86.67
6853;BME280;3465;42.144;24.722;2023-04-10T05:48:57;145514.97;;;10.39;83.09
6853;BME280;3465;42.144;24.722;2023-04-10T05:51:22;145487.44;;;10.28;83.96
6853;BME280;3465;42.144;24.722;2023-04-10T05:53:49;145572.59;;;10.62;81.86
6853;BME280;3465;42.144;24.722;2023-04-10T05:56:15;145862.09;;;11.78;76.50
6853;BME280;3465;42.144;24.722;2023-04-10T05:58:40;146161.84;;;12.98;70.02
6853;BME280;3465;42.144;24.722;2023-04-10T06:01:06;146459.44;;;14.17;65.03
6853;BME280;3465;42.144;24.722;2023-04-10T06:03:31;146738.53;;;15.28;59.44
6853;BME280;3465;42.144;24.722;2023-04-10T06:05:59;146776.28;;;15.43;58.18
6853;BME280;3465;42.144;24.722;2023-04-10T06:08:24;146731.00;;;15.25;58.43
6853;BME280;3465;42.144;24.722;2023-04-10T06:10:50;146494.66;;;14.31;61.04
6853;BME280;3465;42.144;24.722;2023-04-10T06:13:15;146394.13;;;13.91;61.05
6853;BME280;3465;42.144;24.722;2023-04-10T06:15:41;146311.28;;;13.58;63.06
6853;BME280;3465;42.144;24.722;2023-04-10T06:18:06;146336.41;;;13.68;65.17
6853;BME280;3465;42.144;24.722;2023-04-10T06:20:35;146593.97;;;14.71;61.48
6853;BME280;3465;42.144;24.722;2023-04-10T06:23:01;146718.41;;;15.20;57.47
6853;BME280;3465;42.144;24.722;2023-04-10T06:25:27;146792.63;;;15.50;57.08
6853;BME280;3465;42.144;24.722;2023-04-10T06:27:52;146693.25;;;15.10;56.86
6853;BME280;3465;42.144;24.722;2023-04-10T06:30:18;146595.19;;;14.71;58.72
6853;BME280;3465;42.144;24.722;2023-04-10T06:32:43;146627.88;;;14.84;58.56
6853;BME280;3465;42.144;24.722;2023-04-10T06:35:08;146675.63;;;15.03;57.01
6853;BME280;3465;42.144;24.722;2023-04-10T06:37:34;146710.88;;;15.17;56.05
6853;BME280;3465;42.144;24.722;2023-04-10T06:40:08;146703.28;;;15.14;56.73
6853;BME280;3465;42.144;24.722;2023-04-10T06:42:34;146665.59;;;14.99;57.03
6853;BME280;3465;42.144;24.722;2023-04-10T06:45:00;146651.75;;;14.94;56.72
6853;BME280;3465;42.144;24.722;2023-04-10T06:47:25;146807.69;;;15.56;54.93
6853;BME280;3465;42.144;24.722;2023-04-10T06:49:51;147031.72;;;16.45;52.05
6853;BME280;3465;42.144;24.722;2023-04-10T06:52:17;147270.94;;;17.41;48.69
6853;BME280;3465;42.144;24.722;2023-04-10T06:54:42;147849.78;;;19.71;45.54
6853;BME280;3465;42.144;24.722;2023-04-10T06:57:08;148347.47;;;21.69;40.04
6853;BME280;3465;42.144;24.722;2023-04-10T06:59:33;148637.09;;;22.84;37.03
6853;BME280;3465;42.144;24.722;2023-04-10T07:02:01;148756.09;;;23.31;33.96
6853;BME280;3465;42.144;24.722;2023-04-10T07:04:26;148677.56;;;23.00;35.22
6853;BME280;3465;42.144;24.722;2023-04-10T07:06:52;148861.13;;;23.72;32.56
6853;BME280;3465;42.144;24.722;2023-04-10T07:09:17;149044.78;;;24.45;31.61
6853;BME280;3465;42.144;24.722;2023-04-10T07:11:43;149193.03;;;25.04;31.66
6853;BME280;3465;42.144;24.722;2023-04-10T07:14:08;149350.22;;;25.66;31.02
6853;BME280;3465;42.144;24.722;2023-04-10T07:16:33;149551.94;;;26.46;30.18
6853;BME280;3465;42.144;24.722;2023-04-10T07:18:59;149955.63;;;28.05;27.17
6853;BME280;3465;42.144;24.722;2023-04-10T07:21:24;150180.53;;;28.94;25.23
6853;BME280;3465;42.144;24.722;2023-04-10T07:23:51;149954.38;;;28.05;25.64
6853;BME280;3465;42.144;24.722;2023-04-10T07:26:17;149654.69;;;26.87;26.57
6853;BME280;3465;42.144;24.722;2023-04-10T07:28:42;149418.72;;;25.93;27.91
6853;BME280;3465;42.144;24.722;2023-04-10T07:31:08;149399.69;;;25.86;27.34
6853;BME280;3465;42.144;24.722;2023-04-10T07:33:34;149220.91;;;25.15;28.18
6853;BME280;3465;42.144;24.722;2023-04-10T07:36:00;149101.84;;;24.68;29.55
6853;BME280;3465;42.144;24.722;2023-04-10T07:38:27;148809.25;;;23.52;30.55
6853;BME280;3465;42.144;24.722;2023-04-10T07:40:56;148838.38;;;23.63;31.62
6853;BME280;3465;42.144;24.722;2023-04-10T07:43:22;148904.16;;;23.89;30.67
6853;BME280;3465;42.144;24.722;2023-04-10T07:45:48;148781.41;;;23.41;30.64
6853;BME280;3465;42.144;24.722;2023-04-10T07:48:13;148802.91;;;23.49;31.43
6853;BME280;3465;42.144;24.722;2023-04-10T07:50:38;148807.97;;;23.51;30.93
6853;BME280;3465;42.144;24.722;2023-04-10T07:53:04;148956.16;;;24.10;30.96
6853;BME280;3465;42.144;24.722;2023-04-10T07:55:40;148871.28;;;23.76;29.96
6853;BME280;3465;42.144;24.722;2023-04-10T07:58:06;148895.34;;;23.86;30.51
6853;BME280;3465;42.144;24.722;2023-04-10T08:00:32;148834.56;;;23.62;30.42
6853;BME280;3465;42.144;24.722;2023-04-10T08:02:57;148724.41;;;23.18;31.01
6853;BME280;3465;42.144;24.722;2023-04-10T08:05:23;148549.78;;;22.49;32.98
6853;BME280;3465;42.144;24.722;2023-04-10T08:07:48;148460.00;;;22.13;33.30
6853;BME280;3465;42.144;24.722;2023-04-10T08:10:14;148180.66;;;21.02;33.92
6853;BME280;3465;42.144;24.722;2023-04-10T08:12:39;148072.00;;;20.59;34.78
6853;BME280;3465;42.144;24.722;2023-04-10T08:15:05;147851.06;;;19.71;34.92
6853;BME280;3465;42.144;24.722;2023-04-10T08:17:30;147893.94;;;19.88;35.40
6853;BME280;3465;42.144;24.722;2023-04-10T08:19:56;147853.56;;;19.72;35.70
6853;BME280;3465;42.144;24.722;2023-04-10T08:22:21;147703.38;;;19.13;36.41
6853;BME280;3465;42.144;24.722;2023-04-10T08:24:47;147458.75;;;18.15;38.03
6853;BME280;3465;42.144;24.722;2023-04-10T08:27:12;147292.41;;;17.49;39.73
6853;BME280;3465;42.144;24.722;2023-04-10T08:29:40;147234.44;;;17.26;40.95
6853;BME280;3465;42.144;24.722;2023-04-10T08:32:06;147171.44;;;17.01;40.30
6853;BME280;3465;42.144;24.722;2023-04-10T08:34:31;147039.28;;;16.48;42.05
6853;BME280;3465;42.144;24.722;2023-04-10T08:36:56;147015.31;;;16.39;42.58
6853;BME280;3465;42.144;24.722;2023-04-10T08:39:22;146720.91;;;15.21;43.67
6853;BME280;3465;42.144;24.722;2023-04-10T08:41:47;146785.09;;;15.47;44.66
6853;BME280;3465;42.144;24.722;2023-04-10T08:44:13;146850.50;;;15.73;45.15
6853;BME280;3465;42.144;24.722;2023-04-10T08:46:42;146898.28;;;15.92;43.85
6853;BME280;3465;42.144;24.722;2023-04-10T08:49:09;146845.44;;;15.71;43.43
6853;BME280;3465;42.144;24.722;2023-04-10T08:51:38;146787.59;;;15.48;44.35
6853;BME280;3465;42.144;24.722;2023-04-10T08:54:07;146754.88;;;15.35;44.56
6853;BME280;3465;42.144;24.722;2023-04-10T08:56:36;146758.66;;;15.36;44.78
6853;BME280;3465;42.144;24.722;2023-04-10T08:59:03;146798.94;;;15.52;44.47
6853;BME280;3465;42.144;24.722;2023-04-10T09:01:29;146636.69;;;14.88;45.55
6853;BME280;3465;42.144;24.722;2023-04-10T09:03:55;146560.00;;;14.57;45.92
6853;BME280;3465;42.144;24.722;2023-04-10T09:06:21;146609.03;;;14.77;46.49
6853;BME280;3465;42.144;24.722;2023-04-10T09:08:47;146577.63;;;14.64;46.72
6853;BME280;3465;42.144;24.722;2023-04-10T09:11:13;146597.72;;;14.72;46.99
6853;BME280;3465;42.144;24.722;2023-04-10T09:13:40;146627.88;;;14.84;47.15
6853;BME280;3465;42.144;24.722;2023-04-10T09:16:07;146659.28;;;14.97;46.73
6853;BME280;3465;42.144;24.722;2023-04-10T09:18:44;146648.00;;;14.92;46.78
6853;BME280;3465;42.144;24.722;2023-04-10T09:21:11;146666.81;;;15.00;46.93
6853;BME280;3465;42.144;24.722;2023-04-10T09:23:37;146557.53;;;14.56;47.41
6853;BME280;3465;42.144;24.722;2023-04-10T09:29:06;146450.66;;;14.13;48.50
6853;BME280;3465;42.144;24.722;2023-04-10T09:31:36;146455.69;;;14.15;48.95
6853;BME280;3465;42.144;24.722;2023-04-10T09:34:15;146480.88;;;14.25;49.24
6853;BME280;3465;42.144;24.722;2023-04-10T09:37:00;146493.44;;;14.30;49.43
6853;BME280;3465;42.144;24.722;2023-04-10T09:39:33;146497.22;;;14.32;49.61
6853;BME280;3465;42.144;24.722;2023-04-10T09:41:59;146546.19;;;14.52;49.38
6853;BME280;3465;42.144;24.722;2023-04-10T09:44:47;146532.38;;;14.46;50.31
6853;BME280;3465;42.144;24.722;2023-04-10T09:47:19;146581.41;;;14.66;49.82
6853;BME280;3465;42.144;24.722;2023-04-10T09:49:56;146586.38;;;14.68;50.33
6853;BME280;3465;42.144;24.722;2023-04-10T09:54:54;146624.09;;;14.83;50.43
6853;BME280;3465;42.144;24.722;2023-04-10T09:57:21;146640.44;;;14.89;50.76
6853;BME280;3465;42.144;24.722;2023-04-10T09:59:49;146590.19;;;14.69;50.53
6853;BME280;3465;42.144;24.722;2023-04-10T10:02:17;146539.91;;;14.49;51.72
6853;BME280;3465;42.144;24.722;2023-04-10T10:04:44;146465.72;;;14.19;52.58
6853;BME280;3465;42.144;24.722;2023-04-10T10:07:11;146434.31;;;14.07;53.48
6853;BME280;3465;42.144;24.722;2023-04-10T10:09:37;146247.25;;;13.32;53.72
6853;BME280;3465;42.144;24.722;2023-04-10T10:12:03;146356.47;;;13.76;54.75
6853;BME280;3465;42.144;24.722;2023-04-10T10:14:30;146433.09;;;14.06;54.08
6853;BME280;3465;42.144;24.722;2023-04-10T10:17:04;146449.44;;;14.13;53.62
6853;BME280;3465;42.144;24.722;2023-04-10T10:19:43;146430.56;;;14.05;53.85
6853;BME280;3465;42.144;24.722;2023-04-10T10:22:11;146426.78;;;14.04;53.76
6853;BME280;3465;42.144;24.722;2023-04-10T10:24:37;146488.41;;;14.28;53.50
6853;BME280;3465;42.144;24.722;2023-04-10T10:27:08;146509.78;;;14.37;54.65
6853;BME280;3465;42.144;24.722;2023-04-10T10:29:35;146505.97;;;14.35;55.13
6853;BME280;3465;42.144;24.722;2023-04-10T10:32:05;146572.59;;;14.62;55.05
6853;BME280;3465;42.144;24.722;2023-04-10T10:34:30;146495.94;;;14.31;54.91
6853;BME280;3465;42.144;24.722;2023-04-10T10:36:57;146475.78;;;14.23;57.23
6853;BME280;3465;42.144;24.722;2023-04-10T10:42:37;146381.56;;;13.86;60.74
6853;BME280;3465;42.144;24.722;2023-04-10T10:45:12;146353.94;;;13.75;61.63
6853;BME280;3465;42.144;24.722;2023-04-10T10:47:52;146325.06;;;13.63;62.80
6853;BME280;3465;42.144;24.722;2023-04-10T10:50:17;146331.34;;;13.66;62.73
6853;BME280;3465;42.144;24.722;2023-04-10T10:52:47;146364.00;;;13.79;62.57
6853;BME280;3465;42.144;24.722;2023-04-10T10:58:02;146439.34;;;14.09;61.43
6853;BME280;3465;42.144;24.722;2023-04-10T11:13:36;146495.94;;;14.31;58.08
6853;BME280;3465;42.144;24.722;2023-04-10T11:16:02;146480.88;;;14.25;58.47
6853;BME280;3465;42.144;24.722;2023-04-10T11:21:09;146560.00;;;14.57;56.12
6853;BME280;3465;42.144;24.722;2023-04-10T11:23:37;146528.63;;;14.45;57.26
6853;BME280;3465;42.144;24.722;2023-04-10T11:26:03;146509.78;;;14.37;57.59
6853;BME280;3465;42.144;24.722;2023-04-10T11:28:34;146483.38;;;14.26;57.30
6853;BME280;3465;42.144;24.722;2023-04-10T11:31:19;146538.66;;;14.49;57.68
6853;BME280;3465;42.144;24.722;2023-04-10T11:34:03;146498.44;;;14.32;58.37
6853;BME280;3465;42.144;24.722;2023-04-10T11:36:29;146464.50;;;14.19;59.52
6853;BME280;3465;42.144;24.722;2023-04-10T11:39:00;146440.63;;;14.09;59.45
6853;BME280;3465;42.144;24.722;2023-04-10T11:41:34;146458.19;;;14.16;58.48
6853;BME280;3465;42.144;24.722;2023-04-10T11:44:03;146374.03;;;13.83;60.03
6853;BME280;3465;42.144;24.722;2023-04-10T11:46:29;146382.84;;;13.86;59.81
6853;BME280;3465;42.144;24.722;2023-04-10T11:48:58;146404.19;;;13.95;59.73
6853;BME280;3465;42.144;24.722;2023-04-10T11:51:24;146366.50;;;13.80;59.42
6853;BME280;3465;42.144;24.722;2023-04-10T11:54:07;146282.38;;;13.46;60.07
6853;BME280;3465;42.144;24.722;2023-04-10T11:56:32;146214.59;;;13.19;61.39
6853;BME280;3465;42.144;24.722;2023-04-10T11:58:58;146242.22;;;13.30;64.36
6853;BME280;3465;42.144;24.722;2023-04-10T12:01:24;146225.91;;;13.24;65.51
6853;BME280;3465;42.144;24.722;2023-04-10T12:03:49;146165.59;;;12.99;67.98
6853;BME280;3465;42.144;24.722;2023-04-10T12:06:15;146150.56;;;12.93;68.67
6853;BME280;3465;42.144;24.722;2023-04-10T12:08:47;146161.84;;;12.98;69.89
6853;BME280;3465;42.144;24.722;2023-04-10T12:11:23;146230.91;;;13.26;69.98
6853;BME280;3465;42.144;24.722;2023-04-10T12:13:54;146251.00;;;13.34;68.18
6853;BME280;3465;42.144;24.722;2023-04-10T12:16:19;146222.13;;;13.22;66.80
6853;BME280;3465;42.144;24.722;2023-04-10T12:18:46;146220.84;;;13.22;65.94
6853;BME280;3465;42.144;24.722;2023-04-10T12:21:12;146195.78;;;13.12;66.69
6853;BME280;3465;42.144;24.722;2023-04-10T12:23:38;146214.59;;;13.19;66.06
6853;BME280;3465;42.144;24.722;2023-04-10T12:26:14;146151.81;;;12.94;66.26
6853;BME280;3465;42.144;24.722;2023-04-10T12:28:51;146267.34;;;13.40;65.90
6853;BME280;3465;42.144;24.722;2023-04-10T12:31:17;146358.97;;;13.77;63.99
6853;BME280;3465;42.144;24.722;2023-04-10T12:33:44;146435.59;;;14.07;63.18
6853;BME280;3465;42.144;24.722;2023-04-10T12:36:20;146568.81;;;14.61;60.06
6853;BME280;3465;42.144;24.722;2023-04-10T12:38:46;146615.31;;;14.79;58.47
6853;BME280;3465;42.144;24.722;2023-04-10T12:41:11;146663.06;;;14.98;57.18
6853;BME280;3465;42.144;24.722;2023-04-10T12:43:41;146644.22;;;14.91;57.86
6853;BME280;3465;42.144;24.722;2023-04-10T12:46:08;146598.97;;;14.73;59.10
6853;BME280;3465;42.144;24.722;2023-04-10T12:48:34;146653.03;;;14.94;58.67
6853;BME280;3465;42.144;24.722;2023-04-10T12:51:00;146738.53;;;15.28;57.49
6853;BME280;3465;42.144;24.722;2023-04-10T12:53:26;146676.91;;;15.04;56.79
6853;BME280;3465;42.144;24.722;2023-04-10T12:56:02;146773.78;;;15.42;56.16
6853;BME280;3465;42.144;24.722;2023-04-10T12:58:29;146636.69;;;14.88;56.98
6853;BME280;3465;42.144;24.722;2023-04-10T13:01:03;146660.56;;;14.97;58.03
6853;BME280;3465;42.144;24.722;2023-04-10T13:03:29;146698.28;;;15.12;57.17
6853;BME280;3465;42.144;24.722;2023-04-10T13:05:55;146776.28;;;15.43;55.80
6853;BME280;3465;42.144;24.722;2023-04-10T13:08:21;146874.41;;;15.83;54.63
6853;BME280;3465;42.144;24.722;2023-04-10T13:10:47;146836.63;;;15.67;54.70
6853;BME280;3465;42.144;24.722;2023-04-10T13:13:14;146846.72;;;15.71;54.05
6853;BME280;3465;42.144;24.722;2023-04-10T13:15:39;146890.75;;;15.89;53.48
6853;BME280;3465;42.144;24.722;2023-04-10T13:18:05;146976.31;;;16.23;51.89
6853;BME280;3465;42.144;24.722;2023-04-10T13:20:35;147055.63;;;16.55;51.15
6853;BME280;3465;42.144;24.722;2023-04-10T13:23:01;147145.03;;;16.90;50.58
6853;BME280;3465;42.144;24.722;2023-04-10T13:25:30;147126.13;;;16.83;50.52
6853;BME280;3465;42.144;24.722;2023-04-10T13:27:57;147050.59;;;16.53;50.29
6853;BME280;3465;42.144;24.722;2023-04-10T13:30:23;147070.72;;;16.61;51.40
6853;BME280;3465;42.144;24.722;2023-04-10T13:32:48;147036.78;;;16.47;49.89
6853;BME280;3465;42.144;24.722;2023-04-10T13:35:13;146954.91;;;16.15;51.02
6853;BME280;3465;42.144;24.722;2023-04-10T13:37:39;146956.19;;;16.15;51.54
6853;BME280;3465;42.144;24.722;2023-04-10T13:40:05;146949.88;;;16.13;51.36
6853;BME280;3465;42.144;24.722;2023-04-10T13:42:31;146966.22;;;16.19;51.30
6853;BME280;3465;42.144;24.722;2023-04-10T13:44:56;146973.78;;;16.22;51.67